| time (UTC) | temp C | wind direction | speed KPH | gust KPH | rain 1hr cm | rain 24hr cm | rain mn cm | humidity % | barometer mb |
| 20260905224244 | 15 | 275 | 1.6 | 4.8 | 0.00 | 0.15 | 0.00 | 71 | 1022.5 |
| 20260905221244 | 15 | 262 | 1.6 | 4.8 | 0.00 | 0.15 | 0.00 | 69 | 1022.3 |
| 20260905214244 | 16 | 299 | 3.2 | 8.0 | 0.00 | 0.15 | 0.15 | 67 | 1021.9 |
| 20260905211244 | 16 | 285 | 3.2 | 8.0 | 0.00 | 0.15 | 0.15 | 69 | 1021.7 |
| 20260905201245 | 17 | 294 | 3.2 | 8.0 | 0.00 | 0.15 | 0.15 | 67 | 1020.9 |
| 20260905191245 | 18 | 308 | 3.2 | 9.7 | 0.00 | 0.15 | 0.15 | 63 | 1020.2 |
| 20260905181245 | 20 | 310 | 8.0 | 14.5 | 0.00 | 0.15 | 0.15 | 59 | 1019.4 |
| 20260905174245 | 20 | 260 | 11.3 | 22.5 | 0.00 | 0.15 | 0.15 | 56 | 1019.0 |
| 20260905171245 | 21 | 306 | 12.9 | 25.7 | 0.00 | 0.15 | 0.15 | 53 | 1018.6 |
| 20260905164245 | 22 | 317 | 12.9 | 22.5 | 0.00 | 0.15 | 0.15 | 52 | 1018.5 |
| 20260905161245 | 22 | 285 | 11.3 | 22.5 | 0.00 | 0.15 | 0.15 | 51 | 1018.2 |
| 20260905151246 | 22 | 262 | 14.5 | 37.0 | 0.00 | 0.15 | 0.15 | 50 | 1018.0 |
| 20260905144246 | 22 | 302 | 12.9 | 20.9 | 0.00 | 0.15 | 0.15 | 51 | 1018.0 |
| 20260905141246 | 22 | 266 | 14.5 | 24.1 | 0.00 | 0.15 | 0.15 | 51 | 1018.0 |
| 20260905134246 | 23 | 260 | 14.5 | 29.0 | 0.00 | 0.15 | 0.15 | 51 | 1018.2 |
| 20260905131246 | 23 | 306 | 14.5 | 24.1 | 0.00 | 0.15 | 0.15 | 51 | 1018.2 |
| 20260905124246 | 23 | 304 | 16.1 | 33.8 | 0.00 | 0.15 | 0.15 | 52 | 1018.2 |
| 20260905121246 | 24 | 276 | 16.1 | 25.7 | 0.00 | 0.15 | 0.15 | 51 | 1018.3 |
| 20260905114246 | 22 | 289 | 12.9 | 25.7 | 0.00 | 0.15 | 0.15 | 58 | 1018.4 |
| 20260905111246 | 22 | 318 | 12.9 | 22.5 | 0.00 | 0.15 | 0.15 | 57 | 1018.3 |
| 20260905104246 | 22 | 257 | 11.3 | 22.5 | 0.00 | 0.15 | 0.15 | 59 | 1018.4 |
| 20260905101246 | 22 | 314 | 11.3 | 27.4 | 0.00 | 0.15 | 0.15 | 57 | 1018.2 |
| 20260905094247 | 22 | 281 | 11.3 | 24.1 | 0.00 | 0.15 | 0.15 | 62 | 1018.3 |
| 20260905091247 | 21 | 335 | 11.3 | 17.7 | 0.00 | 0.15 | 0.15 | 70 | 1018.4 |
| 20260905071247 | 15 | 252 | 4.8 | 11.3 | 0.05 | 0.10 | 0.10 | 85 | 1017.1 |
| 20260905064247 | 15 | 250 | 3.2 | 8.0 | 0.05 | 0.05 | 0.05 | 83 | 1017.7 |
| 20260905061247 | 15 | 335 | 3.2 | 12.9 | 0.05 | 0.05 | 0.05 | 82 | 1017.0 |
| 20260905054247 | 16 | 302 | 4.8 | 11.3 | 0.00 | 0.00 | 0.00 | 80 | 1018.2 |
| 20260905051744 | 16 | 281 | 1.6 | 4.8 | 0.00 | 0.00 | 0.00 | 77 | 1017.1 |
| 20260905051247 | 16 | 281 | 1.6 | 4.8 | 0.00 | 0.00 | 0.00 | 77 | 1017.1 |
| 20260905044247 | 17 | 305 | 1.6 | 4.8 | 0.00 | 0.00 | 0.00 | 75 | 1016.5 |
| 20260905041247 | 17 | 270 | 3.2 | 8.0 | 0.00 | 0.00 | 0.00 | 68 | 1015.8 |
| 20260905034248 | 18 | 343 | 3.2 | 6.4 | 0.00 | 0.00 | 0.00 | 66 | 1015.5 |
| 20260905031248 | 18 | 341 | 4.8 | 12.9 | 0.00 | 0.00 | 0.00 | 64 | 1014.4 |
| 20260905024248 | 18 | 341 | 4.8 | 8.0 | 0.00 | 0.00 | 0.00 | 67 | 1014.4 |
| 20260905014248 | 22 | 342 | 1.6 | 9.7 | 0.00 | 0.00 | 0.00 | 62 | 1012.5 |
| 20260905011248 | 22 | 308 | 1.6 | 4.8 | 0.00 | 0.00 | 0.00 | 60 | 1011.9 |
| 20260905004254 | 23 | 299 | 3.2 | 9.7 | 0.00 | 0.00 | 0.00 | 59 | 1011.7 |
| 20260905004249 | 23 | 299 | 3.2 | 9.7 | 0.00 | 0.00 | 0.00 | 59 | 1011.7 |
| 20260905001248 | 22 | 262 | 4.8 | 11.3 | 0.00 | 0.00 | 0.00 | 59 | 1011.5 |
| 20260904234248 | 21 | 253 | 1.6 | 8.0 | 0.00 | 0.00 | 0.00 | 64 | 1011.4 |
| 20260904231248 | 20 | 287 | 1.6 | 4.8 | 0.00 | 0.00 | 0.00 | 67 | 1011.4 |